sensor_id;sensor_type;location;lat;lon;timestamp;pressure;altitude;pressure_sealevel;temperature;humidity
10261;BME280;5175;42.606;23.388;2023-05-10T00:00:38;94011.47;;;8.60;100.00
10261;BME280;5175;42.606;23.388;2023-05-10T00:03:05;94016.84;;;8.75;100.00
10261;BME280;5175;42.606;23.388;2023-05-10T00:05:32;94020.56;;;8.79;100.00
10261;BME280;5175;42.606;23.388;2023-05-10T00:08:00;94019.03;;;8.98;100.00
10261;BME280;5175;42.606;23.388;2023-05-10T00:10:27;94008.25;;;8.63;100.00
10261;BME280;5175;42.606;23.388;2023-05-10T00:12:54;94008.06;;;8.79;100.00
10261;BME280;5175;42.606;23.388;2023-05-10T00:15:21;94010.47;;;8.86;100.00
10261;BME280;5175;42.606;23.388;2023-05-10T00:17:47;94010.75;;;8.90;100.00
10261;BME280;5175;42.606;23.388;2023-05-10T00:20:14;94011.00;;;8.78;100.00
10261;BME280;5175;42.606;23.388;2023-05-10T00:22:41;94009.53;;;8.45;100.00
10261;BME280;5175;42.606;23.388;2023-05-10T00:25:09;94006.66;;;8.52;100.00
10261;BME280;5175;42.606;23.388;2023-05-10T00:27:36;94000.47;;;8.41;100.00
10261;BME280;5175;42.606;23.388;2023-05-10T00:30:04;93999.69;;;8.46;100.00
10261;BME280;5175;42.606;23.388;2023-05-10T00:32:31;94004.22;;;8.45;100.00
10261;BME280;5175;42.606;23.388;2023-05-10T00:34:58;94000.50;;;8.46;100.00
10261;BME280;5175;42.606;23.388;2023-05-10T00:37:25;94006.63;;;8.47;100.00
10261;BME280;5175;42.606;23.388;2023-05-10T00:39:51;93968.16;;;8.17;100.00
10261;BME280;5175;42.606;23.388;2023-05-10T00:42:20;93990.84;;;8.30;100.00
10261;BME280;5175;42.606;23.388;2023-05-10T00:44:47;93990.63;;;8.32;100.00
10261;BME280;5175;42.606;23.388;2023-05-10T00:47:14;93999.00;;;8.13;100.00
10261;BME280;5175;42.606;23.388;2023-05-10T00:49:42;93987.78;;;8.11;100.00
10261;BME280;5175;42.606;23.388;2023-05-10T00:52:09;93994.19;;;8.10;100.00
10261;BME280;5175;42.606;23.388;2023-05-10T00:54:36;93985.59;;;7.93;100.00
10261;BME280;5175;42.606;23.388;2023-05-10T00:57:03;93992.50;;;7.94;100.00
10261;BME280;5175;42.606;23.388;2023-05-10T00:59:32;93979.97;;;7.90;100.00
10261;BME280;5175;42.606;23.388;2023-05-10T01:01:58;93990.88;;;7.88;100.00
10261;BME280;5175;42.606;23.388;2023-05-10T01:04:25;94010.03;;;7.95;100.00
10261;BME280;5175;42.606;23.388;2023-05-10T01:06:52;93978.66;;;7.87;100.00
10261;BME280;5175;42.606;23.388;2023-05-10T01:09:20;93991.66;;;7.89;100.00
10261;BME280;5175;42.606;23.388;2023-05-10T01:11:48;93991.34;;;7.80;100.00
10261;BME280;5175;42.606;23.388;2023-05-10T01:14:17;93981.22;;;7.72;100.00
10261;BME280;5175;42.606;23.388;2023-05-10T01:16:47;93986.25;;;7.74;100.00
10261;BME280;5175;42.606;23.388;2023-05-10T01:19:18;93987.84;;;7.75;100.00
10261;BME280;5175;42.606;23.388;2023-05-10T01:21:51;93986.66;;;7.55;100.00
10261;BME280;5175;42.606;23.388;2023-05-10T01:24:53;93980.56;;;7.60;100.00
10261;BME280;5175;42.606;23.388;2023-05-10T01:30:40;93977.97;;;7.65;100.00
10261;BME280;5175;42.606;23.388;2023-05-10T01:33:18;93973.88;;;7.52;100.00
10261;BME280;5175;42.606;23.388;2023-05-10T01:35:52;93977.25;;;7.43;100.00
10261;BME280;5175;42.606;23.388;2023-05-10T01:38:27;93965.06;;;7.42;100.00
10261;BME280;5175;42.606;23.388;2023-05-10T01:41:02;93974.09;;;7.46;100.00
10261;BME280;5175;42.606;23.388;2023-05-10T01:43:37;93983.06;;;7.40;100.00
10261;BME280;5175;42.606;23.388;2023-05-10T01:46:10;93952.03;;;7.40;100.00
10261;BME280;5175;42.606;23.388;2023-05-10T01:48:47;93965.06;;;7.42;100.00
10261;BME280;5175;42.606;23.388;2023-05-10T01:51:18;93963.25;;;7.52;100.00
10261;BME280;5175;42.606;23.388;2023-05-10T01:53:48;93962.41;;;7.42;100.00
10261;BME280;5175;42.606;23.388;2023-05-10T01:56:20;93964.34;;;7.51;100.00
10261;BME280;5175;42.606;23.388;2023-05-10T01:58:49;93953.19;;;7.49;100.00
10261;BME280;5175;42.606;23.388;2023-05-10T02:01:20;93954.81;;;7.19;100.00
10261;BME280;5175;42.606;23.388;2023-05-10T02:03:50;93964.03;;;7.11;100.00
10261;BME280;5175;42.606;23.388;2023-05-10T02:06:19;93973.16;;;7.25;100.00
10261;BME280;5175;42.606;23.388;2023-05-10T02:08:48;93967.00;;;7.20;100.00
10261;BME280;5175;42.606;23.388;2023-05-10T02:11:17;93972.75;;;7.12;100.00
10261;BME280;5175;42.606;23.388;2023-05-10T02:13:45;93974.09;;;7.14;100.00
10261;BME280;5175;42.606;23.388;2023-05-10T02:16:14;93972.88;;;6.95;100.00
10261;BME280;5175;42.606;23.388;2023-05-10T02:18:43;93978.88;;;6.59;100.00
10261;BME280;5175;42.606;23.388;2023-05-10T02:21:13;93983.38;;;6.58;100.00
10261;BME280;5175;42.606;23.388;2023-05-10T02:23:42;93946.97;;;6.27;100.00
10261;BME280;5175;42.606;23.388;2023-05-10T02:26:10;93976.97;;;6.32;100.00
10261;BME280;5175;42.606;23.388;2023-05-10T02:28:40;93983.34;;;6.32;100.00
10261;BME280;5175;42.606;23.388;2023-05-10T02:31:07;93970.75;;;6.22;100.00
10261;BME280;5175;42.606;23.388;2023-05-10T02:33:37;93973.06;;;6.13;100.00
10261;BME280;5175;42.606;23.388;2023-05-10T02:36:07;93974.09;;;6.12;100.00
10261;BME280;5175;42.606;23.388;2023-05-10T02:38:36;93958.50;;;5.94;100.00
10261;BME280;5175;42.606;23.388;2023-05-10T02:41:04;93981.47;;;6.10;100.00
10261;BME280;5175;42.606;23.388;2023-05-10T02:43:33;93967.63;;;6.03;100.00
10261;BME280;5175;42.606;23.388;2023-05-10T02:46:00;93968.91;;;6.22;100.00
10261;BME280;5175;42.606;23.388;2023-05-10T02:48:27;93971.06;;;6.04;100.00
10261;BME280;5175;42.606;23.388;2023-05-10T02:50:56;93973.63;;;5.99;100.00
10261;BME280;5175;42.606;23.388;2023-05-10T02:53:31;93972.78;;;5.93;100.00
10261;BME280;5175;42.606;23.388;2023-05-10T02:56:03;93967.63;;;6.03;100.00
10261;BME280;5175;42.606;23.388;2023-05-10T02:58:32;93971.13;;;5.87;100.00
10261;BME280;5175;42.606;23.388;2023-05-10T03:00:59;93968.47;;;5.87;100.00
10261;BME280;5175;42.606;23.388;2023-05-10T03:03:27;93962.75;;;5.95;100.00
10261;BME280;5175;42.606;23.388;2023-05-10T03:05:53;93966.03;;;5.86;100.00
10261;BME280;5175;42.606;23.388;2023-05-10T03:08:22;93969.50;;;5.86;100.00
10261;BME280;5175;42.606;23.388;2023-05-10T03:10:58;93961.41;;;5.93;100.00
10261;BME280;5175;42.606;23.388;2023-05-10T03:13:34;93955.53;;;5.91;100.00
10261;BME280;5175;42.606;23.388;2023-05-10T03:16:08;93965.41;;;5.95;100.00
10261;BME280;5175;42.606;23.388;2023-05-10T03:18:42;93963.25;;;5.92;100.00
10261;BME280;5175;42.606;23.388;2023-05-10T03:21:11;93970.75;;;6.00;100.00
10261;BME280;5175;42.606;23.388;2023-05-10T03:23:43;93956.03;;;5.88;100.00
10261;BME280;5175;42.606;23.388;2023-05-10T03:26:14;93971.72;;;5.94;100.00
10261;BME280;5175;42.606;23.388;2023-05-10T03:28:45;93972.53;;;5.95;100.00
10261;BME280;5175;42.606;23.388;2023-05-10T03:31:14;93970.22;;;5.98;100.00
10261;BME280;5175;42.606;23.388;2023-05-10T03:33:46;93969.88;;;6.16;100.00
10261;BME280;5175;42.606;23.388;2023-05-10T03:36:13;93973.47;;;6.05;100.00
10261;BME280;5175;42.606;23.388;2023-05-10T03:38:40;93972.47;;;6.11;100.00
10261;BME280;5175;42.606;23.388;2023-05-10T03:41:07;93970.44;;;5.97;100.00
10261;BME280;5175;42.606;23.388;2023-05-10T03:43:33;93962.19;;;5.93;100.00
10261;BME280;5175;42.606;23.388;2023-05-10T03:46:03;93970.25;;;6.25;100.00
10261;BME280;5175;42.606;23.388;2023-05-10T03:48:29;93983.03;;;6.28;100.00
10261;BME280;5175;42.606;23.388;2023-05-10T03:50:56;93990.22;;;6.32;100.00
10261;BME280;5175;42.606;23.388;2023-05-10T03:53:23;93968.84;;;6.17;100.00
10261;BME280;5175;42.606;23.388;2023-05-10T03:55:50;93975.44;;;6.15;100.00
10261;BME280;5175;42.606;23.388;2023-05-10T03:58:17;93982.59;;;6.14;100.00
10261;BME280;5175;42.606;23.388;2023-05-10T04:00:44;93991.22;;;6.26;100.00
10261;BME280;5175;42.606;23.388;2023-05-10T04:03:13;93993.69;;;6.33;100.00
10261;BME280;5175;42.606;23.388;2023-05-10T04:05:40;93990.31;;;6.16;100.00
10261;BME280;5175;42.606;23.388;2023-05-10T04:08:06;93996.28;;;6.28;100.00
10261;BME280;5175;42.606;23.388;2023-05-10T04:10:33;93992.38;;;6.36;100.00
10261;BME280;5175;42.606;23.388;2023-05-10T04:13:00;94006.78;;;6.45;100.00
10261;BME280;5175;42.606;23.388;2023-05-10T04:15:27;93998.66;;;6.51;100.00
10261;BME280;5175;42.606;23.388;2023-05-10T04:17:54;94001.16;;;6.36;100.00
10261;BME280;5175;42.606;23.388;2023-05-10T04:20:22;93999.25;;;6.32;100.00
10261;BME280;5175;42.606;23.388;2023-05-10T04:22:49;93992.06;;;6.32;100.00
10261;BME280;5175;42.606;23.388;2023-05-10T04:25:16;93948.50;;;6.01;100.00
10261;BME280;5175;42.606;23.388;2023-05-10T04:27:42;93995.34;;;6.39;100.00
10261;BME280;5175;42.606;23.388;2023-05-10T04:30:10;93995.78;;;6.31;100.00
10261;BME280;5175;42.606;23.388;2023-05-10T04:32:37;94000.81;;;6.32;100.00
10261;BME280;5175;42.606;23.388;2023-05-10T04:35:04;94003.53;;;6.38;100.00
10261;BME280;5175;42.606;23.388;2023-05-10T04:37:32;93982.22;;;6.27;100.00
10261;BME280;5175;42.606;23.388;2023-05-10T04:39:59;94007.81;;;6.39;100.00
10261;BME280;5175;42.606;23.388;2023-05-10T04:42:26;94005.69;;;6.41;100.00
10261;BME280;5175;42.606;23.388;2023-05-10T04:44:53;94000.94;;;6.43;100.00
10261;BME280;5175;42.606;23.388;2023-05-10T04:47:20;93995.53;;;6.54;100.00
10261;BME280;5175;42.606;23.388;2023-05-10T04:49:47;94006.06;;;6.49;100.00
10261;BME280;5175;42.606;23.388;2023-05-10T04:52:13;93993.09;;;6.53;100.00
10261;BME280;5175;42.606;23.388;2023-05-10T04:54:44;93997.88;;;6.51;100.00
10261;BME280;5175;42.606;23.388;2023-05-10T04:57:11;94000.81;;;6.54;100.00
10261;BME280;5175;42.606;23.388;2023-05-10T04:59:37;93981.97;;;6.51;100.00
10261;BME280;5175;42.606;23.388;2023-05-10T05:02:05;94001.47;;;6.66;100.00
10261;BME280;5175;42.606;23.388;2023-05-10T05:04:31;93997.16;;;6.60;100.00
10261;BME280;5175;42.606;23.388;2023-05-10T05:06:58;94005.28;;;6.75;100.00
10261;BME280;5175;42.606;23.388;2023-05-10T05:09:25;93993.16;;;6.79;100.00
10261;BME280;5175;42.606;23.388;2023-05-10T05:11:53;93990.19;;;6.76;100.00
10261;BME280;5175;42.606;23.388;2023-05-10T05:14:20;94000.44;;;6.94;100.00
10261;BME280;5175;42.606;23.388;2023-05-10T05:16:47;94005.69;;;6.89;100.00
10261;BME280;5175;42.606;23.388;2023-05-10T05:19:14;93993.59;;;6.71;100.00
10261;BME280;5175;42.606;23.388;2023-05-10T05:21:40;93963.88;;;6.69;100.00
10261;BME280;5175;42.606;23.388;2023-05-10T05:24:07;94009.69;;;6.91;100.00
10261;BME280;5175;42.606;23.388;2023-05-10T05:26:35;94009.25;;;7.00;100.00
10261;BME280;5175;42.606;23.388;2023-05-10T05:29:03;94011.81;;;6.89;100.00
10261;BME280;5175;42.606;23.388;2023-05-10T05:31:30;94018.03;;;7.00;100.00
10261;BME280;5175;42.606;23.388;2023-05-10T05:33:57;94011.41;;;7.03;100.00
10261;BME280;5175;42.606;23.388;2023-05-10T05:36:24;94022.72;;;6.93;100.00
10261;BME280;5175;42.606;23.388;2023-05-10T05:38:51;93998.88;;;6.71;100.00
10261;BME280;5175;42.606;23.388;2023-05-10T05:41:17;94022.38;;;6.84;100.00
10261;BME280;5175;42.606;23.388;2023-05-10T05:43:45;94022.06;;;7.08;100.00
10261;BME280;5175;42.606;23.388;2023-05-10T05:46:13;94033.22;;;7.10;100.00
10261;BME280;5175;42.606;23.388;2023-05-10T05:48:40;94031.25;;;7.27;100.00
10261;BME280;5175;42.606;23.388;2023-05-10T05:51:06;94030.94;;;7.18;100.00
10261;BME280;5175;42.606;23.388;2023-05-10T05:53:33;94010.66;;;7.07;100.00
10261;BME280;5175;42.606;23.388;2023-05-10T05:56:00;94028.72;;;7.10;100.00
10261;BME280;5175;42.606;23.388;2023-05-10T05:58:27;94019.00;;;6.94;100.00
10261;BME280;5175;42.606;23.388;2023-05-10T06:00:54;94036.81;;;6.99;100.00
10261;BME280;5175;42.606;23.388;2023-05-10T06:03:22;94032.38;;;7.04;100.00
10261;BME280;5175;42.606;23.388;2023-05-10T06:05:49;94036.69;;;7.10;100.00
10261;BME280;5175;42.606;23.388;2023-05-10T06:08:15;94004.13;;;6.88;100.00
10261;BME280;5175;42.606;23.388;2023-05-10T06:10:42;94045.06;;;7.24;100.00
10261;BME280;5175;42.606;23.388;2023-05-10T06:13:09;94041.09;;;7.00;100.00
10261;BME280;5175;42.606;23.388;2023-05-10T06:15:36;94032.78;;;7.18;100.00
10261;BME280;5175;42.606;23.388;2023-05-10T06:18:03;94036.63;;;7.32;100.00
10261;BME280;5175;42.606;23.388;2023-05-10T06:20:32;94036.78;;;7.20;100.00
10261;BME280;5175;42.606;23.388;2023-05-10T06:22:59;94042.09;;;7.20;100.00
10261;BME280;5175;42.606;23.388;2023-05-10T06:25:26;94035.94;;;7.15;100.00
10261;BME280;5175;42.606;23.388;2023-05-10T06:27:52;94037.81;;;7.19;100.00
10261;BME280;5175;42.606;23.388;2023-05-10T06:30:23;94046.63;;;7.25;100.00
10261;BME280;5175;42.606;23.388;2023-05-10T06:32:52;94047.66;;;7.19;100.00
10261;BME280;5175;42.606;23.388;2023-05-10T06:35:20;94048.44;;;7.19;100.00
10261;BME280;5175;42.606;23.388;2023-05-10T06:37:48;94053.66;;;7.09;100.00
10261;BME280;5175;42.606;23.388;2023-05-10T06:40:15;94051.38;;;6.96;100.00
10261;BME280;5175;42.606;23.388;2023-05-10T06:42:42;94055.31;;;7.15;100.00
10261;BME280;5175;42.606;23.388;2023-05-10T06:45:10;94060.97;;;7.24;100.00
10261;BME280;5175;42.606;23.388;2023-05-10T06:47:38;94043.94;;;7.20;100.00
10261;BME280;5175;42.606;23.388;2023-05-10T06:50:05;94046.34;;;7.21;100.00
10261;BME280;5175;42.606;23.388;2023-05-10T06:52:32;94045.88;;;7.29;100.00
10261;BME280;5175;42.606;23.388;2023-05-10T06:55:01;93995.03;;;6.84;100.00
10261;BME280;5175;42.606;23.388;2023-05-10T06:57:28;94046.59;;;7.20;100.00
10261;BME280;5175;42.606;23.388;2023-05-10T06:59:55;94039.13;;;6.90;100.00
10261;BME280;5175;42.606;23.388;2023-05-10T07:02:22;94043.84;;;7.10;100.00
10261;BME280;5175;42.606;23.388;2023-05-10T07:04:49;94060.03;;;7.08;100.00
10261;BME280;5175;42.606;23.388;2023-05-10T07:07:17;94046.44;;;7.05;100.00
10261;BME280;5175;42.606;23.388;2023-05-10T07:09:44;94057.53;;;7.23;100.00
10261;BME280;5175;42.606;23.388;2023-05-10T07:12:12;94061.16;;;7.17;100.00
10261;BME280;5175;42.606;23.388;2023-05-10T07:14:39;94063.41;;;7.04;100.00
10261;BME280;5175;42.606;23.388;2023-05-10T07:17:06;94052.00;;;7.03;100.00
10261;BME280;5175;42.606;23.388;2023-05-10T07:19:33;94050.56;;;6.90;100.00
10261;BME280;5175;42.606;23.388;2023-05-10T07:22:00;94059.16;;;7.03;100.00
10261;BME280;5175;42.606;23.388;2023-05-10T07:24:27;94062.78;;;7.18;100.00
10261;BME280;5175;42.606;23.388;2023-05-10T07:26:54;94048.69;;;7.18;100.00
10261;BME280;5175;42.606;23.388;2023-05-10T07:29:22;94071.81;;;7.22;100.00
10261;BME280;5175;42.606;23.388;2023-05-10T07:31:49;94061.31;;;7.32;100.00
10261;BME280;5175;42.606;23.388;2023-05-10T07:34:15;94062.91;;;7.33;100.00
10261;BME280;5175;42.606;23.388;2023-05-10T07:36:42;94062.69;;;7.40;100.00
10261;BME280;5175;42.606;23.388;2023-05-10T07:39:09;94066.22;;;7.45;100.00
10261;BME280;5175;42.606;23.388;2023-05-10T07:41:36;94068.91;;;7.50;100.00
10261;BME280;5175;42.606;23.388;2023-05-10T07:44:04;94062.97;;;7.38;100.00
10261;BME280;5175;42.606;23.388;2023-05-10T07:46:32;94071.88;;;7.54;100.00
10261;BME280;5175;42.606;23.388;2023-05-10T07:48:59;94063.44;;;7.62;100.00
10261;BME280;5175;42.606;23.388;2023-05-10T07:51:26;94060.63;;;7.42;100.00
10261;BME280;5175;42.606;23.388;2023-05-10T07:53:53;94076.31;;;7.75;100.00
10261;BME280;5175;42.606;23.388;2023-05-10T07:56:22;94076.97;;;7.61;100.00
10261;BME280;5175;42.606;23.388;2023-05-10T07:58:50;94045.00;;;7.50;100.00
10261;BME280;5175;42.606;23.388;2023-05-10T08:01:17;94076.81;;;7.72;100.00
10261;BME280;5175;42.606;23.388;2023-05-10T08:03:45;94063.00;;;7.43;100.00
10261;BME280;5175;42.606;23.388;2023-05-10T08:06:12;94069.22;;;7.54;100.00
10261;BME280;5175;42.606;23.388;2023-05-10T08:08:41;94083.88;;;7.62;100.00
10261;BME280;5175;42.606;23.388;2023-05-10T08:11:08;94071.69;;;7.66;100.00
10261;BME280;5175;42.606;23.388;2023-05-10T08:13:35;94080.47;;;7.66;100.00
10261;BME280;5175;42.606;23.388;2023-05-10T08:16:02;94070.72;;;7.77;100.00
10261;BME280;5175;42.606;23.388;2023-05-10T08:18:29;94078.03;;;7.60;100.00
10261;BME280;5175;42.606;23.388;2023-05-10T08:20:57;94070.06;;;7.60;100.00
10261;BME280;5175;42.606;23.388;2023-05-10T08:23:24;94073.88;;;7.74;100.00
10261;BME280;5175;42.606;23.388;2023-05-10T08:25:53;94082.44;;;7.81;100.00
10261;BME280;5175;42.606;23.388;2023-05-10T08:28:20;94080.81;;;7.75;100.00
10261;BME280;5175;42.606;23.388;2023-05-10T08:30:47;94082.69;;;7.79;100.00
10261;BME280;5175;42.606;23.388;2023-05-10T08:33:13;94086.31;;;8.00;100.00
10261;BME280;5175;42.606;23.388;2023-05-10T08:35:40;94081.13;;;7.83;100.00
10261;BME280;5175;42.606;23.388;2023-05-10T08:38:09;94089.34;;;7.82;100.00
10261;BME280;5175;42.606;23.388;2023-05-10T08:40:36;94086.34;;;8.05;100.00
10261;BME280;5175;42.606;23.388;2023-05-10T08:43:05;94087.41;;;8.04;100.00
10261;BME280;5175;42.606;23.388;2023-05-10T08:45:33;94086.44;;;8.20;100.00
10261;BME280;5175;42.606;23.388;2023-05-10T08:48:05;94075.25;;;8.13;100.00
10261;BME280;5175;42.606;23.388;2023-05-10T08:50:33;94081.91;;;8.15;100.00
10261;BME280;5175;42.606;23.388;2023-05-10T08:53:04;94086.13;;;8.11;100.00
10261;BME280;5175;42.606;23.388;2023-05-10T08:55:33;94098.34;;;8.12;100.00
10261;BME280;5175;42.606;23.388;2023-05-10T08:58:02;94094.75;;;7.92;100.00
10261;BME280;5175;42.606;23.388;2023-05-10T09:00:29;94097.91;;;7.89;100.00
10261;BME280;5175;42.606;23.388;2023-05-10T09:02:57;94087.78;;;7.86;100.00
10261;BME280;5175;42.606;23.388;2023-05-10T09:05:24;94094.13;;;7.80;100.00
10261;BME280;5175;42.606;23.388;2023-05-10T09:07:51;94092.41;;;7.95;100.00
10261;BME280;5175;42.606;23.388;2023-05-10T09:10:18;94080.53;;;8.08;100.00
10261;BME280;5175;42.606;23.388;2023-05-10T09:12:46;94099.38;;;8.06;100.00
10261;BME280;5175;42.606;23.388;2023-05-10T09:15:15;94096.63;;;7.96;100.00
10261;BME280;5175;42.606;23.388;2023-05-10T09:17:44;94021.47;;;7.59;100.00
10261;BME280;5175;42.606;23.388;2023-05-10T09:20:12;94080.25;;;8.09;100.00
10261;BME280;5175;42.606;23.388;2023-05-10T09:22:39;94071.38;;;7.94;100.00
10261;BME280;5175;42.606;23.388;2023-05-10T09:25:08;94085.22;;;7.96;100.00
10261;BME280;5175;42.606;23.388;2023-05-10T09:27:36;94085.19;;;7.91;100.00
10261;BME280;5175;42.606;23.388;2023-05-10T09:30:06;94076.88;;;7.82;100.00
10261;BME280;5175;42.606;23.388;2023-05-10T09:32:38;94081.03;;;8.05;100.00
10261;BME280;5175;42.606;23.388;2023-05-10T09:35:09;94070.44;;;8.10;100.00
10261;BME280;5175;42.606;23.388;2023-05-10T09:37:36;94077.13;;;8.17;100.00
10261;BME280;5175;42.606;23.388;2023-05-10T09:40:05;94074.06;;;8.31;100.00
10261;BME280;5175;42.606;23.388;2023-05-10T09:42:33;94070.31;;;8.27;100.00
10261;BME280;5175;42.606;23.388;2023-05-10T09:45:06;94070.88;;;8.29;100.00
10261;BME280;5175;42.606;23.388;2023-05-10T09:47:33;94079.19;;;8.42;100.00
10261;BME280;5175;42.606;23.388;2023-05-10T09:50:02;94077.94;;;8.55;100.00
10261;BME280;5175;42.606;23.388;2023-05-10T09:52:30;94070.72;;;8.50;100.00
10261;BME280;5175;42.606;23.388;2023-05-10T09:54:57;94071.28;;;8.57;100.00
10261;BME280;5175;42.606;23.388;2023-05-10T09:57:24;94068.69;;;8.72;100.00
10261;BME280;5175;42.606;23.388;2023-05-10T09:59:52;94064.94;;;8.68;100.00
10261;BME280;5175;42.606;23.388;2023-05-10T10:02:21;94048.13;;;8.58;100.00
10261;BME280;5175;42.606;23.388;2023-05-10T10:04:57;94060.53;;;8.94;100.00
10261;BME280;5175;42.606;23.388;2023-05-10T10:07:24;93998.81;;;8.30;100.00
10261;BME280;5175;42.606;23.388;2023-05-10T10:09:51;94040.50;;;8.71;100.00
10261;BME280;5175;42.606;23.388;2023-05-10T10:12:19;94055.41;;;8.77;100.00
10261;BME280;5175;42.606;23.388;2023-05-10T10:14:46;94051.22;;;8.97;100.00
10261;BME280;5175;42.606;23.388;2023-05-10T10:17:16;94037.84;;;8.76;100.00
10261;BME280;5175;42.606;23.388;2023-05-10T10:19:45;94042.44;;;8.96;100.00
10261;BME280;5175;42.606;23.388;2023-05-10T10:22:12;94054.16;;;8.95;100.00
10261;BME280;5175;42.606;23.388;2023-05-10T10:24:39;94060.00;;;8.97;100.00
10261;BME280;5175;42.606;23.388;2023-05-10T10:27:18;94046.97;;;8.96;100.00
10261;BME280;5175;42.606;23.388;2023-05-10T10:29:52;94055.22;;;9.04;100.00
10261;BME280;5175;42.606;23.388;2023-05-10T10:32:29;94053.91;;;9.02;100.00
10261;BME280;5175;42.606;23.388;2023-05-10T10:35:00;94043.50;;;8.90;100.00
10261;BME280;5175;42.606;23.388;2023-05-10T10:37:42;94048.53;;;8.87;100.00
10261;BME280;5175;42.606;23.388;2023-05-10T10:40:26;94038.13;;;8.75;100.00
10261;BME280;5175;42.606;23.388;2023-05-10T10:42:53;94053.06;;;8.91;100.00
10261;BME280;5175;42.606;23.388;2023-05-10T10:45:21;94048.44;;;8.66;100.00
10261;BME280;5175;42.606;23.388;2023-05-10T10:47:48;94056.00;;;8.90;100.00
10261;BME280;5175;42.606;23.388;2023-05-10T10:50:18;94058.38;;;8.91;100.00
10261;BME280;5175;42.606;23.388;2023-05-10T10:52:45;94057.63;;;8.96;100.00
10261;BME280;5175;42.606;23.388;2023-05-10T10:55:17;94064.03;;;9.10;100.00
10261;BME280;5175;42.606;23.388;2023-05-10T10:57:46;94054.38;;;8.89;100.00
10261;BME280;5175;42.606;23.388;2023-05-10T11:00:30;94064.81;;;9.00;100.00
10261;BME280;5175;42.606;23.388;2023-05-10T11:02:59;94067.22;;;9.07;100.00
10261;BME280;5175;42.606;23.388;2023-05-10T11:05:46;94059.78;;;9.04;100.00
10261;BME280;5175;42.606;23.388;2023-05-10T11:08:18;94058.72;;;9.10;100.00
10261;BME280;5175;42.606;23.388;2023-05-10T11:11:05;94060.34;;;9.16;100.00
10261;BME280;5175;42.606;23.388;2023-05-10T11:13:34;94059.00;;;9.13;100.00
10261;BME280;5175;42.606;23.388;2023-05-10T11:16:14;94023.28;;;8.94;100.00
10261;BME280;5175;42.606;23.388;2023-05-10T11:18:53;94054.22;;;9.25;100.00
10261;BME280;5175;42.606;23.388;2023-05-10T11:21:22;94056.06;;;9.15;100.00
10261;BME280;5175;42.606;23.388;2023-05-10T11:23:50;94052.09;;;9.32;100.00
10261;BME280;5175;42.606;23.388;2023-05-10T11:26:17;94054.75;;;9.22;100.00
10261;BME280;5175;42.606;23.388;2023-05-10T11:28:48;93938.41;;;8.15;100.00
10261;BME280;5175;42.606;23.388;2023-05-10T11:31:17;94051.06;;;9.33;100.00
10261;BME280;5175;42.606;23.388;2023-05-10T11:33:44;94046.53;;;9.34;100.00
10261;BME280;5175;42.606;23.388;2023-05-10T11:36:12;94062.25;;;9.40;100.00
10261;BME280;5175;42.606;23.388;2023-05-10T11:38:40;94061.44;;;9.35;100.00
10261;BME280;5175;42.606;23.388;2023-05-10T11:41:08;94060.38;;;9.41;100.00
10261;BME280;5175;42.606;23.388;2023-05-10T11:43:36;94043.34;;;9.27;100.00
10261;BME280;5175;42.606;23.388;2023-05-10T11:46:04;94055.06;;;9.46;100.00
10261;BME280;5175;42.606;23.388;2023-05-10T11:48:32;94057.72;;;9.36;100.00
10261;BME280;5175;42.606;23.388;2023-05-10T11:50:58;94046.78;;;9.32;100.00
10261;BME280;5175;42.606;23.388;2023-05-10T11:53:27;94050.25;;;9.33;100.00
10261;BME280;5175;42.606;23.388;2023-05-10T11:56:02;94065.66;;;9.11;100.00
10261;BME280;5175;42.606;23.388;2023-05-10T11:58:29;94063.50;;;9.08;100.00
10261;BME280;5175;42.606;23.388;2023-05-10T12:00:57;94061.34;;;9.05;100.00
10261;BME280;5175;42.606;23.388;2023-05-10T12:03:24;94058.75;;;9.35;100.00
10261;BME280;5175;42.606;23.388;2023-05-10T12:05:51;94051.59;;;9.51;100.00
10261;BME280;5175;42.606;23.388;2023-05-10T12:08:21;94060.94;;;9.63;100.00
10261;BME280;5175;42.606;23.388;2023-05-10T12:10:48;94064.94;;;9.66;100.00
10261;BME280;5175;42.606;23.388;2023-05-10T12:13:17;94051.06;;;9.59;100.00
10261;BME280;5175;42.606;23.388;2023-05-10T12:15:44;94053.50;;;9.65;100.00
10261;BME280;5175;42.606;23.388;2023-05-10T12:18:11;94055.88;;;9.62;100.00
10261;BME280;5175;42.606;23.388;2023-05-10T12:20:39;94053.75;;;9.69;100.00
10261;BME280;5175;42.606;23.388;2023-05-10T12:23:08;94050.03;;;9.65;100.00
10261;BME280;5175;42.606;23.388;2023-05-10T12:25:37;94043.91;;;9.79;100.00
10261;BME280;5175;42.606;23.388;2023-05-10T12:28:05;94019.13;;;9.69;100.00
10261;BME280;5175;42.606;23.388;2023-05-10T12:30:35;94030.84;;;9.88;100.00
10261;BME280;5175;42.606;23.388;2023-05-10T12:33:07;94033.22;;;10.25;100.00
10261;BME280;5175;42.606;23.388;2023-05-10T12:35:44;94032.69;;;10.13;100.00
10261;BME280;5175;42.606;23.388;2023-05-10T12:38:25;94034.28;;;10.24;100.00
10261;BME280;5175;42.606;23.388;2023-05-10T12:40:52;94024.97;;;10.26;100.00
10261;BME280;5175;42.606;23.388;2023-05-10T12:43:19;94034.28;;;10.24;100.00
10261;BME280;5175;42.606;23.388;2023-05-10T12:45:47;94029.78;;;10.19;100.00
10261;BME280;5175;42.606;23.388;2023-05-10T12:48:14;94024.97;;;10.26;100.00
10261;BME280;5175;42.606;23.388;2023-05-10T12:50:41;94031.09;;;10.32;100.00
10261;BME280;5175;42.606;23.388;2023-05-10T12:53:07;94035.63;;;10.26;100.00
10261;BME280;5175;42.606;23.388;2023-05-10T12:55:35;94018.84;;;10.21;100.00
10261;BME280;5175;42.606;23.388;2023-05-10T12:58:01;94017.75;;;10.32;100.00
10261;BME280;5175;42.606;23.388;2023-05-10T13:00:28;94019.34;;;10.28;100.00
10261;BME280;5175;42.606;23.388;2023-05-10T13:02:56;94016.41;;;10.29;100.00
10261;BME280;5175;42.606;23.388;2023-05-10T13:05:23;94007.09;;;10.27;100.00
10261;BME280;5175;42.606;23.388;2023-05-10T13:07:50;94008.97;;;10.21;100.00
10261;BME280;5175;42.606;23.388;2023-05-10T13:10:17;94011.34;;;10.07;100.00